createdAt,value
2018-08-23T00:00:17.337Z,67.66
2018-08-23T00:00:37.661Z,67.61
2018-08-23T00:00:57.554Z,67.57
2018-08-23T00:01:18.256Z,67.58
2018-08-23T00:01:38.438Z,67.56
2018-08-23T00:01:58.392Z,67.56
2018-08-23T00:02:19.487Z,67.57
2018-08-23T00:02:39.383Z,67.55
2018-08-23T00:02:59.344Z,67.58
2018-08-23T00:03:20.622Z,67.55
2018-08-23T00:03:40.140Z,67.56
2018-08-23T00:04:00.610Z,67.57
2018-08-23T00:04:21.548Z,67.59
2018-08-23T00:04:41.176Z,67.58
2018-08-23T00:05:01.171Z,67.60
2018-08-23T00:05:21.812Z,67.64
2018-08-23T00:05:41.982Z,67.64
2018-08-23T00:06:22.310Z,67.67
2018-08-23T00:06:42.213Z,67.72
2018-08-23T00:07:02.932Z,67.74
2018-08-23T00:07:23.143Z,67.79
2018-08-23T00:07:43.042Z,67.77
2018-08-23T00:08:04.291Z,67.81
2018-08-23T00:08:23.983Z,67.83
2018-08-23T00:08:44.062Z,67.82
2018-08-23T00:09:04.692Z,67.84
2018-08-23T00:09:24.191Z,67.90
2018-08-23T00:09:44.051Z,67.86
2018-08-23T00:10:05.313Z,67.85
2018-08-23T00:10:24.941Z,67.84
2018-08-23T00:10:44.820Z,67.85
2018-08-23T00:11:06.143Z,67.86
2018-08-23T00:11:25.816Z,67.85
2018-08-23T00:11:45.664Z,67.88
2018-08-23T00:12:06.970Z,67.88
2018-08-23T00:12:26.535Z,67.90
2018-08-23T00:12:46.441Z,67.94
2018-08-23T00:13:07.408Z,67.92
2018-08-23T00:13:27.361Z,67.95
2018-08-23T00:13:48.125Z,68.00
2018-08-23T00:14:08.071Z,68.03
2018-08-23T00:14:28.037Z,68.03
2018-08-23T00:14:49.245Z,68.04
2018-08-23T00:15:09.232Z,68.07
2018-08-23T00:15:29.172Z,68.08
2018-08-23T00:15:50.512Z,68.09
2018-08-23T00:16:10.109Z,68.12
2018-08-23T00:16:30.037Z,68.17
2018-08-23T00:16:51.559Z,68.17
2018-08-23T00:17:10.949Z,68.19
2018-08-23T00:17:31.467Z,68.21
2018-08-23T00:17:51.866Z,68.21
2018-08-23T00:18:11.781Z,68.21
2018-08-23T00:18:32.157Z,68.25
2018-08-23T00:18:52.890Z,68.27
2018-08-23T00:19:12.764Z,68.32
2018-08-23T00:19:33.731Z,68.36
2018-08-23T00:19:53.907Z,68.45
2018-08-23T00:20:14.084Z,68.51
2018-08-23T00:20:34.321Z,68.56
2018-08-23T00:20:54.585Z,68.53
2018-08-23T00:21:14.461Z,68.53
2018-08-23T00:21:35.893Z,68.56
2018-08-23T00:21:55.321Z,68.54
2018-08-23T00:22:15.713Z,68.55
2018-08-23T00:22:36.931Z,68.55
2018-08-23T00:22:56.389Z,68.59
2018-08-23T00:23:16.736Z,68.58
2018-08-23T00:23:37.506Z,68.59
2018-08-23T00:23:57.357Z,68.58
2018-08-23T00:24:17.792Z,68.61
2018-08-23T00:24:38.664Z,68.63
2018-08-23T00:24:58.627Z,68.65
2018-08-23T00:25:19.945Z,68.66
2018-08-23T00:25:39.563Z,68.68
2018-08-23T00:25:59.561Z,68.72
2018-08-23T00:26:20.986Z,68.72
2018-08-23T00:26:40.402Z,68.74
2018-08-23T00:27:00.827Z,68.78
2018-08-23T00:27:21.913Z,68.82
2018-08-23T00:27:41.332Z,68.87
2018-08-23T00:28:01.725Z,68.87
2018-08-23T00:28:22.566Z,68.89
2018-08-23T00:28:42.498Z,68.90
2018-08-23T00:29:03.593Z,68.90
2018-08-23T00:29:23.352Z,68.93
2018-08-23T00:29:43.321Z,68.99
2018-08-23T00:30:04.666Z,68.96
2018-08-23T00:30:24.270Z,68.99
2018-08-23T00:30:44.221Z,69.00
2018-08-23T00:31:05.352Z,69.00
2018-08-23T00:31:24.816Z,69.01
2018-08-23T00:32:05.963Z,69.01
2018-08-23T00:32:25.390Z,69.04
2018-08-23T00:32:45.767Z,69.07
2018-08-23T00:33:07.012Z,69.06
2018-08-23T00:33:26.422Z,69.09
2018-08-23T00:33:46.797Z,69.12
2018-08-23T00:34:07.490Z,69.13
2018-08-23T00:34:27.452Z,69.18
2018-08-23T00:34:47.843Z,69.19
2018-08-23T00:35:08.560Z,69.20
2018-08-23T00:35:28.570Z,69.21
2018-08-23T00:35:49.193Z,69.21
2018-08-23T00:36:08.676Z,69.24
2018-08-23T00:36:29.115Z,69.25
2018-08-23T00:36:49.837Z,69.27
2018-08-23T00:37:09.700Z,69.29
2018-08-23T00:37:30.131Z,69.34
2018-08-23T00:37:50.840Z,69.39
2018-08-23T00:38:10.691Z,69.40
2018-08-23T00:38:31.102Z,69.46
2018-08-23T00:38:52.112Z,69.49
2018-08-23T00:39:11.548Z,69.52
2018-08-23T00:39:32.180Z,69.57
2018-08-23T00:39:52.586Z,69.59
2018-08-23T00:40:12.579Z,69.60
2018-08-23T00:40:33.253Z,69.62
2018-08-23T00:40:53.442Z,69.67
2018-08-23T00:41:13.508Z,69.71
2018-08-23T00:41:33.998Z,69.73
2018-08-23T00:41:54.146Z,69.79
2018-08-23T00:42:14.089Z,69.85
2018-08-23T00:42:35.426Z,69.85
2018-08-23T00:42:54.787Z,69.93
2018-08-23T00:43:15.495Z,69.94
2018-08-23T00:43:36.015Z,70.14
2018-08-23T00:43:55.495Z,69.95
2018-08-23T00:44:15.943Z,69.93
2018-08-23T00:44:36.976Z,69.93
2018-08-23T00:44:56.399Z,69.99
2018-08-23T00:45:17.067Z,69.98
2018-08-23T00:45:37.319Z,69.95
2018-08-23T00:45:57.220Z,69.95
2018-08-23T00:46:17.628Z,69.97
2018-08-23T00:46:38.325Z,70.02
2018-08-23T00:46:58.289Z,70.11
2018-08-23T00:47:19.576Z,70.12
2018-08-23T00:47:39.154Z,70.18
2018-08-23T00:47:59.083Z,70.18
2018-08-23T00:48:20.303Z,70.20
2018-08-23T00:48:39.830Z,70.20
2018-08-23T00:48:59.798Z,70.25
2018-08-23T00:49:21.005Z,70.26
2018-08-23T00:49:40.449Z,70.34
2018-08-23T00:50:00.813Z,70.34
2018-08-23T00:50:21.846Z,70.37
2018-08-23T00:50:41.279Z,70.34
2018-08-23T00:51:01.656Z,70.20
2018-08-23T00:51:22.475Z,70.42
2018-08-23T00:51:42.448Z,70.41
2018-08-23T00:52:03.432Z,70.45
2018-08-23T00:52:23.663Z,70.50
2018-08-23T00:52:43.541Z,70.51
2018-08-23T00:53:04.287Z,70.51
2018-08-23T00:53:24.537Z,70.51
2018-08-23T00:53:44.474Z,70.52
2018-08-23T00:54:06.015Z,70.49
2018-08-23T00:54:25.336Z,70.51
2018-08-23T00:54:45.809Z,70.52
2018-08-23T00:55:06.839Z,70.52
2018-08-23T00:55:26.256Z,70.55
2018-08-23T00:55:46.637Z,70.56
2018-08-23T00:56:07.553Z,70.54
2018-08-23T00:56:27.494Z,70.58
2018-08-23T00:56:47.881Z,70.58
2018-08-23T00:57:08.385Z,70.58
2018-08-23T00:57:28.237Z,70.58
2018-08-23T00:57:49.182Z,70.69
2018-08-23T00:58:09.294Z,70.65
2018-08-23T00:58:29.245Z,70.63
2018-08-23T00:58:50.384Z,70.65
2018-08-23T00:59:09.736Z,70.66
2018-08-23T00:59:30.176Z,70.65
2018-08-23T00:59:51.193Z,70.73
2018-08-23T01:00:10.622Z,70.68
2018-08-23T01:00:31.107Z,70.72
2018-08-23T01:00:52.026Z,70.77
2018-08-23T01:01:11.961Z,70.74
2018-08-23T01:01:32.449Z,70.60
2018-08-23T01:01:53.111Z,70.77
2018-08-23T01:02:13.143Z,70.76
2018-08-23T01:02:33.299Z,70.75
2018-08-23T01:02:53.480Z,70.78
2018-08-23T01:03:13.350Z,70.76
2018-08-23T01:03:34.633Z,70.84
2018-08-23T01:03:54.284Z,70.77
2018-08-23T01:04:14.237Z,70.79
2018-08-23T01:04:35.766Z,70.79
2018-08-23T01:04:54.680Z,70.83
2018-08-23T01:05:15.528Z,70.87
2018-08-23T01:05:36.265Z,70.83
2018-08-23T01:05:55.713Z,70.86
2018-08-23T01:06:16.070Z,70.83
2018-08-23T01:06:37.025Z,70.86
2018-08-23T01:06:56.957Z,70.84
2018-08-23T01:07:17.632Z,70.89
2018-08-23T01:07:37.798Z,70.84
2018-08-23T01:07:57.780Z,70.95
2018-08-23T01:08:18.896Z,70.81
2018-08-23T01:08:38.576Z,70.83
2018-08-23T01:08:58.556Z,70.80
2018-08-23T01:09:19.825Z,70.81
2018-08-23T01:09:39.506Z,70.76
2018-08-23T01:09:59.571Z,70.78
2018-08-23T01:10:20.548Z,70.79
2018-08-23T01:10:39.900Z,70.76
2018-08-23T01:11:00.507Z,70.79
2018-08-23T01:11:21.262Z,70.77
2018-08-23T01:11:40.615Z,70.76
2018-08-23T01:12:01.091Z,70.81
2018-08-23T01:12:22.124Z,70.72
2018-08-23T01:12:41.522Z,70.73
2018-08-23T01:13:02.188Z,70.75
2018-08-23T01:13:22.451Z,70.75
2018-08-23T01:13:42.351Z,70.77
2018-08-23T01:14:02.791Z,70.78
2018-08-23T01:14:23.542Z,70.79
2018-08-23T01:14:43.515Z,70.78
2018-08-23T01:15:04.729Z,70.79
2018-08-23T01:15:24.380Z,70.82
2018-08-23T01:15:44.249Z,70.87
2018-08-23T01:16:05.330Z,70.84
2018-08-23T01:16:24.950Z,70.91
2018-08-23T01:16:44.965Z,70.87
2018-08-23T01:17:05.833Z,70.86
2018-08-23T01:17:25.209Z,70.94
2018-08-23T01:17:45.905Z,70.97
2018-08-23T01:18:06.676Z,71.01
2018-08-23T01:18:26.110Z,71.03
2018-08-23T01:18:46.623Z,71.06
2018-08-23T01:19:07.314Z,71.07
2018-08-23T01:19:26.653Z,71.09
2018-08-23T01:19:47.103Z,71.09
2018-08-23T01:20:07.717Z,71.14
2018-08-23T01:20:27.649Z,71.17
2018-08-23T01:20:48.097Z,71.15
2018-08-23T01:21:08.774Z,71.15
2018-08-23T01:21:28.688Z,71.26
2018-08-23T01:21:50.112Z,71.20
2018-08-23T01:22:09.480Z,71.30
2018-08-23T01:22:29.914Z,71.25
2018-08-23T01:22:50.939Z,71.33
2018-08-23T01:23:10.504Z,71.34
2018-08-23T01:23:30.434Z,71.32
2018-08-23T01:23:51.560Z,71.35
2018-08-23T01:24:10.986Z,71.41
2018-08-23T01:24:31.597Z,71.45
2018-08-23T01:24:52.102Z,71.48
2018-08-23T01:25:11.448Z,71.53
2018-08-23T01:25:31.881Z,71.55
2018-08-23T01:26:12.330Z,71.59
2018-08-23T01:26:32.712Z,71.65
2018-08-23T01:26:53.448Z,71.71
2018-08-23T01:27:13.653Z,71.75
2018-08-23T01:27:34.279Z,71.80
2018-08-23T01:27:53.997Z,71.82
2018-08-23T01:28:13.840Z,71.90
2018-08-23T01:28:35.206Z,71.95
2018-08-23T01:28:55.082Z,71.99
2018-08-23T01:29:15.052Z,72.00
2018-08-23T01:29:36.134Z,72.02
2018-08-23T01:29:55.565Z,72.05
2018-08-23T01:30:16.473Z,72.07
2018-08-23T01:30:37.073Z,72.13
2018-08-23T01:30:56.438Z,72.14
2018-08-23T01:31:16.867Z,72.13
2018-08-23T01:31:37.671Z,72.11
2018-08-23T01:31:57.623Z,72.12
2018-08-23T01:32:18.131Z,72.12
2018-08-23T01:32:38.319Z,72.13
2018-08-23T01:32:58.243Z,72.13
2018-08-23T01:33:19.305Z,72.18
2018-08-23T01:33:38.974Z,72.18
2018-08-23T01:33:58.824Z,72.21
2018-08-23T01:34:20.091Z,72.19
2018-08-23T01:34:39.457Z,72.19
2018-08-23T01:35:00.017Z,72.22
2018-08-23T01:35:20.916Z,72.25
2018-08-23T01:35:40.341Z,72.22
2018-08-23T01:36:00.700Z,72.29
2018-08-23T01:36:21.957Z,72.33
2018-08-23T01:36:41.373Z,72.32
2018-08-23T01:37:02.024Z,72.36
2018-08-23T01:37:22.586Z,72.40
2018-08-23T01:37:42.004Z,72.40
2018-08-23T01:38:02.662Z,72.47
2018-08-23T01:38:22.810Z,72.47
2018-08-23T01:38:42.952Z,72.53
2018-08-23T01:39:23.194Z,72.55
2018-08-23T01:39:43.135Z,72.57
2018-08-23T01:40:04.256Z,72.58
2018-08-23T01:40:23.903Z,72.64
2018-08-23T01:40:43.756Z,72.66
2018-08-23T01:41:04.962Z,72.65
2018-08-23T01:41:24.520Z,72.81
2018-08-23T01:41:44.705Z,72.69
2018-08-23T01:42:05.192Z,72.73
2018-08-23T01:42:25.047Z,72.73
2018-08-23T01:42:45.603Z,72.71
2018-08-23T01:43:06.327Z,72.69
2018-08-23T01:43:25.750Z,72.71
2018-08-23T01:43:46.123Z,72.80
2018-08-23T01:44:07.170Z,72.79
2018-08-23T01:44:26.598Z,72.78
2018-08-23T01:44:46.934Z,72.75
2018-08-23T01:45:07.612Z,72.77
2018-08-23T01:45:27.584Z,72.79
2018-08-23T01:45:47.999Z,72.81
2018-08-23T01:46:08.362Z,72.82
2018-08-23T01:46:28.739Z,72.87
2018-08-23T01:46:49.965Z,72.90
2018-08-23T01:47:09.780Z,72.90
2018-08-23T01:47:29.651Z,73.03
2018-08-23T01:47:51.105Z,73.05
2018-08-23T01:48:10.530Z,73.21
2018-08-23T01:48:30.907Z,73.21
2018-08-23T01:48:52.141Z,73.26
2018-08-23T01:49:11.608Z,73.29
2018-08-23T01:49:32.040Z,73.35
2018-08-23T01:49:52.752Z,73.39
2018-08-23T01:50:12.726Z,73.37
2018-08-23T01:50:33.507Z,73.38
2018-08-23T01:50:53.952Z,73.38
2018-08-23T01:51:13.821Z,73.38
2018-08-23T01:51:34.582Z,73.40
2018-08-23T01:51:54.548Z,73.40
2018-08-23T01:52:14.956Z,73.42
2018-08-23T01:52:36.291Z,73.41
2018-08-23T01:52:55.664Z,73.45
2018-08-23T01:53:16.515Z,73.49
2018-08-23T01:53:40.602Z,73.50
2018-08-23T01:53:59.911Z,73.52
2018-08-23T01:54:16.811Z,73.53
2018-08-23T01:54:37.481Z,73.59
2018-08-23T01:54:57.363Z,73.61
2018-08-23T01:55:17.766Z,73.62
2018-08-23T01:55:38.473Z,73.65
2018-08-23T01:55:58.318Z,73.67
2018-08-23T01:56:19.518Z,73.66
2018-08-23T01:56:39.126Z,73.71
2018-08-23T01:56:58.973Z,73.74
2018-08-23T01:57:20.035Z,73.76
2018-08-23T01:57:39.542Z,73.80
2018-08-23T01:57:59.431Z,73.82
2018-08-23T01:58:20.774Z,73.86
2018-08-23T01:58:40.187Z,73.91
2018-08-23T01:59:00.564Z,73.93
2018-08-23T01:59:21.900Z,73.95
2018-08-23T01:59:41.322Z,73.96
2018-08-23T02:00:01.929Z,74.00
2018-08-23T02:00:22.356Z,74.04
2018-08-23T02:00:42.203Z,74.07
2018-08-23T02:01:02.950Z,74.12
2018-08-23T02:01:23.140Z,74.18
2018-08-23T02:01:43.076Z,74.22
2018-08-23T02:02:04.401Z,74.27
2018-08-23T02:02:24.083Z,74.30
2018-08-23T02:02:44.024Z,74.35
2018-08-23T02:03:05.231Z,74.37
2018-08-23T02:03:24.619Z,74.37
2018-08-23T02:03:45.173Z,74.38
2018-08-23T02:04:05.938Z,74.42
2018-08-23T02:04:25.291Z,74.43
2018-08-23T02:04:45.741Z,74.44
2018-08-23T02:05:06.868Z,74.46
2018-08-23T02:05:26.343Z,74.44
2018-08-23T02:05:46.825Z,74.42
2018-08-23T02:06:07.623Z,74.37
2018-08-23T02:06:27.741Z,74.35
2018-08-23T02:06:47.610Z,74.38
2018-08-23T02:07:08.225Z,74.43
2018-08-23T02:07:28.163Z,74.54
2018-08-23T02:07:49.182Z,74.64
2018-08-23T02:08:08.547Z,74.71
2018-08-23T02:08:29.173Z,74.74
2018-08-23T02:08:49.809Z,74.70
2018-08-23T02:09:09.415Z,74.65
2018-08-23T02:09:29.363Z,74.65
2018-08-23T02:09:50.834Z,74.72
2018-08-23T02:10:10.407Z,74.73
2018-08-23T02:10:30.336Z,74.80
2018-08-23T02:10:51.469Z,74.88
2018-08-23T02:11:10.881Z,75.05
2018-08-23T02:11:31.526Z,75.07
2018-08-23T02:11:51.989Z,75.15
2018-08-23T02:12:11.879Z,75.25
2018-08-23T02:12:32.294Z,75.31
2018-08-23T02:12:52.943Z,75.37
2018-08-23T02:13:33.054Z,75.46
2018-08-23T02:13:53.326Z,75.48
2018-08-23T02:14:13.332Z,75.54
2018-08-23T02:14:33.371Z,75.58
2018-08-23T02:14:53.552Z,75.61
2018-08-23T02:15:13.711Z,75.65
2018-08-23T02:15:33.952Z,75.65
2018-08-23T02:15:54.379Z,75.55
2018-08-23T02:16:14.294Z,75.71
2018-08-23T02:16:35.611Z,75.75
2018-08-23T02:16:55.050Z,75.74
2018-08-23T02:17:15.427Z,75.76
2018-08-23T02:17:36.755Z,75.75
2018-08-23T02:17:56.448Z,75.81
2018-08-23T02:18:16.314Z,75.83
2018-08-23T02:18:37.313Z,75.84
2018-08-23T02:18:57.354Z,75.89
2018-08-23T02:19:17.203Z,75.90
2018-08-23T02:19:37.853Z,75.91
2018-08-23T02:19:57.769Z,75.94
2018-08-23T02:20:18.257Z,76.01
2018-08-23T02:20:38.970Z,76.06
2018-08-23T02:20:59.138Z,76.12
2018-08-23T02:21:19.986Z,76.14
2018-08-23T02:21:39.723Z,76.18
2018-08-23T02:21:59.916Z,76.19
2018-08-23T02:22:20.813Z,76.20
2018-08-23T02:22:40.530Z,76.20
2018-08-23T02:23:00.424Z,76.23
2018-08-23T02:23:21.648Z,76.28
2018-08-23T02:23:41.159Z,76.27
2018-08-23T02:24:01.071Z,76.28
2018-08-23T02:24:22.185Z,76.29
2018-08-23T02:24:41.589Z,76.30
2018-08-23T02:25:02.005Z,76.34
2018-08-23T02:25:22.738Z,76.34
2018-08-23T02:25:42.615Z,76.36
2018-08-23T02:26:03.440Z,76.36
2018-08-23T02:26:43.338Z,76.42
2018-08-23T02:27:04.461Z,76.39
2018-08-23T02:27:24.035Z,76.39
2018-08-23T02:27:43.976Z,76.55
2018-08-23T02:28:05.096Z,76.48
2018-08-23T02:28:24.708Z,76.47
2018-08-23T02:28:44.572Z,76.50
2018-08-23T02:29:05.186Z,76.51
2018-08-23T02:29:25.387Z,76.53
2018-08-23T02:29:45.247Z,76.54
2018-08-23T02:30:06.735Z,76.55
2018-08-23T02:30:26.141Z,76.64
2018-08-23T02:30:46.538Z,76.58
2018-08-23T02:31:07.404Z,76.63
2018-08-23T02:31:27.324Z,76.63
2018-08-23T02:31:47.773Z,76.64
2018-08-23T02:32:08.393Z,76.66
2018-08-23T02:32:28.473Z,76.69
2018-08-23T02:32:49.245Z,76.71
2018-08-23T02:33:08.957Z,76.73
2018-08-23T02:33:28.938Z,76.78
2018-08-23T02:33:50.173Z,76.81
2018-08-23T02:34:09.527Z,76.82
2018-08-23T02:34:29.882Z,76.84
2018-08-23T02:34:51.203Z,76.88
2018-08-23T02:35:10.817Z,76.89
2018-08-23T02:35:30.703Z,76.96
2018-08-23T02:35:51.824Z,76.95
2018-08-23T02:36:11.185Z,76.98
2018-08-23T02:36:31.697Z,76.97
2018-08-23T02:36:52.164Z,76.99
2018-08-23T02:37:12.021Z,77.03
2018-08-23T02:37:32.457Z,77.03
2018-08-23T02:37:53.110Z,76.95
2018-08-23T02:38:13.118Z,77.10
2018-08-23T02:38:34.061Z,77.08
2018-08-23T02:38:53.726Z,77.17
2018-08-23T02:39:13.660Z,77.13
2018-08-23T02:39:35.160Z,77.11
2018-08-23T02:39:54.982Z,77.13
2018-08-23T02:40:15.198Z,77.14
2018-08-23T02:40:36.085Z,77.19
2018-08-23T02:40:55.526Z,77.17
2018-08-23T02:41:15.992Z,77.19
2018-08-23T02:41:37.033Z,77.18
2018-08-23T02:41:56.441Z,77.19
2018-08-23T02:42:16.805Z,77.20
2018-08-23T02:42:37.584Z,77.20
2018-08-23T02:42:57.475Z,77.19
2018-08-23T02:43:17.920Z,77.22
2018-08-23T02:43:38.587Z,77.23
2018-08-23T02:43:58.475Z,77.25
2018-08-23T02:44:19.830Z,77.25
2018-08-23T02:44:39.617Z,77.27
2018-08-23T02:44:59.602Z,77.27
2018-08-23T02:45:20.451Z,77.32
2018-08-23T02:45:39.880Z,77.32
2018-08-23T02:46:00.257Z,77.34
2018-08-23T02:46:21.473Z,77.36
2018-08-23T02:46:40.817Z,77.36
2018-08-23T02:47:01.358Z,77.37
2018-08-23T02:47:22.207Z,77.38
2018-08-23T02:47:41.635Z,77.40
2018-08-23T02:48:02.293Z,77.40
2018-08-23T02:48:22.606Z,77.39
2018-08-23T02:48:42.608Z,77.44
2018-08-23T02:49:02.822Z,77.44
2018-08-23T02:49:23.010Z,77.47
2018-08-23T02:49:42.977Z,77.47
2018-08-23T02:50:04.205Z,77.49
2018-08-23T02:50:23.865Z,77.56
2018-08-23T02:50:43.798Z,77.51
2018-08-23T02:51:05.028Z,77.55
2018-08-23T02:51:24.561Z,77.61
2018-08-23T02:51:44.511Z,77.64
2018-08-23T02:52:05.956Z,77.70
2018-08-23T02:52:25.389Z,77.71
2018-08-23T02:52:45.864Z,77.76
2018-08-23T02:53:07.200Z,77.81
2018-08-23T02:53:26.555Z,77.82
2018-08-23T02:53:47.013Z,77.86
2018-08-23T02:54:07.523Z,77.86
2018-08-23T02:54:27.547Z,77.90
2018-08-23T02:54:47.409Z,77.88
2018-08-23T02:55:07.792Z,77.86
2018-08-23T02:55:28.204Z,77.88
2018-08-23T02:55:49.112Z,77.84
2018-08-23T02:56:09.252Z,77.86
2018-08-23T02:56:29.326Z,77.86
2018-08-23T02:56:50.116Z,77.86
2018-08-23T02:57:09.936Z,77.87
2018-08-23T02:57:30.005Z,77.86
2018-08-23T02:57:50.822Z,77.84
2018-08-23T02:58:10.167Z,77.87
2018-08-23T02:58:30.543Z,77.89
2018-08-23T02:58:51.579Z,77.89
2018-08-23T02:59:11.037Z,77.88
2018-08-23T02:59:31.666Z,77.87
2018-08-23T02:59:52.011Z,77.91
2018-08-23T03:00:12.263Z,77.91
2018-08-23T03:00:32.296Z,77.88
2018-08-23T03:00:52.877Z,77.91
2018-08-23T03:01:12.751Z,77.91
2018-08-23T03:01:33.767Z,77.92
2018-08-23T03:01:53.441Z,77.92
2018-08-23T03:02:13.367Z,77.98
2018-08-23T03:02:34.554Z,77.99
2018-08-23T03:02:54.327Z,78.03
2018-08-23T03:03:14.338Z,78.04
2018-08-23T03:03:35.215Z,77.98
2018-08-23T03:03:54.666Z,77.98
2018-08-23T03:04:15.261Z,78.00
2018-08-23T03:04:35.476Z,77.98
2018-08-23T03:04:55.323Z,78.02
2018-08-23T03:05:16.283Z,78.00
2018-08-23T03:05:36.983Z,77.99
2018-08-23T03:05:56.398Z,78.04
2018-08-23T03:06:16.880Z,78.00
2018-08-23T03:06:37.653Z,78.02
2018-08-23T03:06:57.787Z,78.07
2018-08-23T03:07:17.744Z,78.10
2018-08-23T03:07:38.523Z,78.11
2018-08-23T03:07:58.456Z,78.15
2018-08-23T03:08:19.788Z,78.16
2018-08-23T03:08:39.496Z,78.17
2018-08-23T03:08:59.416Z,78.22
2018-08-23T03:09:20.825Z,78.22
2018-08-23T03:09:40.184Z,78.23
2018-08-23T03:10:00.618Z,78.22
2018-08-23T03:10:21.744Z,78.04
2018-08-23T03:10:41.187Z,78.25
2018-08-23T03:11:01.652Z,78.24
2018-08-23T03:11:22.515Z,78.25
2018-08-23T03:11:42.552Z,78.27
2018-08-23T03:12:02.915Z,78.27
2018-08-23T03:12:23.074Z,78.27
2018-08-23T03:12:43.243Z,78.29
2018-08-23T03:13:04.047Z,78.33
2018-08-23T03:13:24.055Z,78.32
2018-08-23T03:13:43.445Z,78.31
2018-08-23T03:14:04.971Z,78.37
2018-08-23T03:14:24.451Z,78.39
2018-08-23T03:14:44.449Z,78.39
2018-08-23T03:15:05.803Z,78.41
2018-08-23T03:15:25.227Z,78.43
2018-08-23T03:15:45.867Z,78.45
2018-08-23T03:16:06.830Z,78.48
2018-08-23T03:16:26.260Z,78.50
2018-08-23T03:16:46.636Z,78.54
2018-08-23T03:17:07.492Z,78.56
2018-08-23T03:17:27.338Z,78.59
2018-08-23T03:17:47.695Z,78.63
2018-08-23T03:18:08.399Z,78.68
2018-08-23T03:18:28.382Z,78.68
2018-08-23T03:18:49.649Z,78.70
2018-08-23T03:19:09.361Z,78.74
2018-08-23T03:19:29.291Z,78.74
2018-08-23T03:19:50.780Z,78.77
2018-08-23T03:20:10.211Z,78.87
2018-08-23T03:20:30.631Z,78.80
2018-08-23T03:20:51.914Z,78.83
2018-08-23T03:21:11.341Z,78.86
2018-08-23T03:21:31.839Z,79.08
2018-08-23T03:21:52.692Z,78.91
2018-08-23T03:22:12.578Z,78.99
2018-08-23T03:22:32.956Z,79.03
2018-08-23T03:22:53.798Z,79.07
2018-08-23T03:23:34.423Z,79.08
2018-08-23T03:23:54.201Z,79.16
2018-08-23T03:24:14.108Z,79.18
2018-08-23T03:24:35.567Z,79.20
2018-08-23T03:24:54.987Z,79.23
2018-08-23T03:25:15.902Z,79.24
2018-08-23T03:25:36.790Z,79.28
2018-08-23T03:25:56.249Z,79.30
2018-08-23T03:26:16.701Z,79.36
2018-08-23T03:26:37.563Z,79.37
2018-08-23T03:26:57.456Z,79.33
2018-08-23T03:27:17.811Z,79.33
2018-08-23T03:27:38.649Z,79.35
2018-08-23T03:27:58.620Z,79.41
2018-08-23T03:28:20.034Z,79.46
2018-08-23T03:28:39.569Z,79.51
2018-08-23T03:28:59.697Z,79.54
2018-08-23T03:29:20.268Z,79.58
2018-08-23T03:29:39.904Z,79.64
2018-08-23T03:29:59.827Z,79.65
2018-08-23T03:30:21.259Z,79.73
2018-08-23T03:30:40.899Z,79.76
2018-08-23T03:31:00.870Z,79.87
2018-08-23T03:31:22.216Z,79.87
2018-08-23T03:31:41.613Z,79.88
2018-08-23T03:32:02.227Z,79.91
2018-08-23T03:32:22.549Z,79.94
2018-08-23T03:32:42.662Z,79.98
2018-08-23T03:33:02.664Z,80.04
2018-08-23T03:33:22.814Z,79.99
2018-08-23T03:33:42.966Z,79.99
2018-08-23T03:34:03.470Z,80.00
2018-08-23T03:34:23.757Z,80.00
2018-08-23T03:34:43.734Z,80.02
2018-08-23T03:35:05.012Z,80.03
2018-08-23T03:35:24.554Z,80.05
2018-08-23T03:35:44.508Z,80.07
2018-08-23T03:36:05.736Z,80.12
2018-08-23T03:36:25.147Z,80.11
2018-08-23T03:36:45.539Z,80.13
2018-08-23T03:37:06.970Z,80.21
2018-08-23T03:37:26.397Z,80.19
2018-08-23T03:37:46.813Z,80.23
2018-08-23T03:38:07.548Z,80.29
2018-08-23T03:38:27.430Z,80.28
2018-08-23T03:38:47.853Z,80.30
2018-08-23T03:39:08.213Z,80.30
2018-08-23T03:39:28.673Z,80.31
2018-08-23T03:39:50.004Z,80.28
2018-08-23T03:40:09.511Z,80.29
2018-08-23T03:40:29.361Z,80.36
2018-08-23T03:40:50.728Z,80.41
2018-08-23T03:41:10.142Z,80.38
2018-08-23T03:41:30.526Z,80.43
2018-08-23T03:41:51.554Z,80.42
2018-08-23T03:42:10.969Z,80.47
2018-08-23T03:42:31.536Z,80.50
2018-08-23T03:42:52.075Z,80.52
2018-08-23T03:43:11.491Z,80.54
2018-08-23T03:43:31.863Z,80.56
2018-08-23T03:43:52.680Z,80.65
2018-08-23T03:44:12.617Z,80.71
2018-08-23T03:44:33.128Z,80.62
2018-08-23T03:44:53.320Z,80.74
2018-08-23T03:45:13.283Z,80.63
2018-08-23T03:45:34.466Z,80.63
2018-08-23T03:45:54.163Z,80.62
2018-08-23T03:46:14.284Z,80.59
2018-08-23T03:46:35.086Z,80.61
2018-08-23T03:46:54.715Z,80.60
2018-08-23T03:47:14.688Z,80.60
2018-08-23T03:47:36.119Z,80.63
2018-08-23T03:47:55.548Z,80.62
2018-08-23T03:48:15.924Z,80.62
2018-08-23T03:48:36.947Z,80.63
2018-08-23T03:48:56.395Z,80.63
2018-08-23T03:49:16.887Z,80.62
2018-08-23T03:49:37.626Z,80.64
2018-08-23T03:49:57.512Z,80.61
2018-08-23T03:50:18.115Z,80.61
2018-08-23T03:50:38.289Z,80.62
2018-08-23T03:50:58.228Z,80.65
2018-08-23T03:51:19.246Z,80.63
2018-08-23T03:51:39.149Z,80.67
2018-08-23T03:51:59.306Z,80.68
2018-08-23T03:52:20.111Z,80.69
2018-08-23T03:52:39.698Z,80.69
2018-08-23T03:52:59.603Z,80.70
2018-08-23T03:53:20.488Z,80.71
2018-08-23T03:53:39.913Z,80.71
2018-08-23T03:54:00.482Z,80.72
2018-08-23T03:54:21.218Z,80.75
2018-08-23T03:54:40.640Z,80.76
2018-08-23T03:55:01.029Z,80.77
2018-08-23T03:55:22.050Z,80.81
2018-08-23T03:55:41.396Z,80.83
2018-08-23T03:56:01.844Z,80.83
2018-08-23T03:56:22.611Z,80.85
2018-08-23T03:56:42.464Z,80.84
2018-08-23T03:57:03.417Z,80.83
2018-08-23T03:57:23.609Z,80.81
2018-08-23T03:57:43.530Z,80.81
2018-08-23T03:58:04.954Z,80.81
2018-08-23T03:58:24.547Z,80.79
2018-08-23T03:58:44.456Z,80.55
2018-08-23T03:59:05.783Z,80.81
2018-08-23T03:59:25.325Z,80.81
2018-08-23T04:00:06.314Z,80.81
2018-08-23T04:00:25.819Z,80.84
2018-08-23T04:00:46.465Z,80.86
2018-08-23T04:01:07.243Z,80.88
2018-08-23T04:01:26.657Z,80.93
2018-08-23T04:01:47.038Z,81.01
2018-08-23T04:02:07.617Z,80.97
2018-08-23T04:02:27.632Z,80.97
2018-08-23T04:02:47.555Z,81.01
2018-08-23T04:03:08.375Z,81.04
2018-08-23T04:03:28.223Z,81.08
2018-08-23T04:03:49.247Z,81.11
2018-08-23T04:04:08.744Z,81.14
2018-08-23T04:04:29.131Z,81.15
2018-08-23T04:04:50.462Z,81.17
2018-08-23T04:05:10.048Z,81.16
2018-08-23T04:05:30.000Z,81.18
2018-08-23T04:05:51.392Z,81.18
2018-08-23T04:06:10.827Z,81.19
2018-08-23T04:06:31.185Z,81.20
2018-08-23T04:06:52.219Z,81.25
2018-08-23T04:07:11.640Z,81.22
2018-08-23T04:07:32.021Z,81.25
2018-08-23T04:07:52.672Z,81.26
2018-08-23T04:08:12.573Z,81.23
2018-08-23T04:08:32.980Z,81.23
2018-08-23T04:08:53.691Z,81.21
2018-08-23T04:09:13.601Z,81.20
2018-08-23T04:09:54.227Z,81.20
2018-08-23T04:10:14.471Z,81.01
2018-08-23T04:10:35.447Z,81.16
2018-08-23T04:10:54.883Z,81.16
2018-08-23T04:11:15.256Z,81.16
2018-08-23T04:11:36.482Z,81.13
2018-08-23T04:11:55.903Z,81.20
2018-08-23T04:12:16.283Z,81.15
2018-08-23T04:12:37.370Z,81.12
2018-08-23T04:12:57.016Z,81.14
2018-08-23T04:13:17.106Z,81.17
2018-08-23T04:13:37.523Z,81.13
2018-08-23T04:13:57.457Z,81.14
2018-08-23T04:14:17.806Z,81.12
2018-08-23T04:14:38.565Z,81.13
2018-08-23T04:14:58.484Z,81.11
2018-08-23T04:15:19.727Z,81.11
2018-08-23T04:15:39.625Z,81.10
2018-08-23T04:15:59.724Z,81.13
2018-08-23T04:16:20.637Z,81.12
2018-08-23T04:16:40.066Z,81.12
2018-08-23T04:17:00.514Z,81.16
2018-08-23T04:17:21.714Z,81.15
2018-08-23T04:17:41.105Z,81.16
2018-08-23T04:18:01.918Z,81.13
2018-08-23T04:18:22.219Z,81.16
2018-08-23T04:18:42.077Z,81.16
2018-08-23T04:19:02.943Z,81.16
2018-08-23T04:19:23.112Z,81.15
2018-08-23T04:19:43.088Z,81.15
2018-08-23T04:20:04.379Z,81.16
2018-08-23T04:20:24.031Z,81.15
2018-08-23T04:20:43.985Z,81.14
2018-08-23T04:21:05.412Z,81.14
2018-08-23T04:21:24.841Z,81.20
2018-08-23T04:21:45.364Z,81.16
2018-08-23T04:22:06.237Z,81.13
2018-08-23T04:22:25.594Z,81.12
2018-08-23T04:22:46.005Z,81.13
2018-08-23T04:23:06.970Z,81.13
2018-08-23T04:23:26.389Z,81.14
2018-08-23T04:23:46.749Z,81.12
2018-08-23T04:24:07.615Z,81.12
2018-08-23T04:24:27.747Z,81.15